Time;durP1;ratioP1;P1;durP2;ratioP2;P2;SDS_P1;SDS_P2;PMS_P1;PMS_P2;Temp;Humidity;BMP_temperature;BMP_pressure;BME280_temperature;BME280_humidity;BME280_pressure;Samples;Min_cycle;Max_cycle;Signal;HPM_P1;HPM_P2
2022/10/27 00:00:12;;;;;;;3.83;3.53;;;19.80;86.70;;;;;;5021217;28;20452;-79
2022/10/27 00:02:40;;;;;;;14.70;9.40;;;19.80;86.70;;;;;;5021694;28;20476;-80
2022/10/27 00:05:09;;;;;;;17.40;8.70;;;19.80;87.00;;;;;;5021503;28;20467;-82
2022/10/27 00:07:37;;;;;;;11.80;7.43;;;19.80;87.00;;;;;;5023464;28;20447;-82
2022/10/27 00:10:07;;;;;;;12.20;7.77;;;19.80;87.10;;;;;;5023695;28;20543;-83
2022/10/27 00:12:35;;;;;;;11.67;6.07;;;19.80;87.20;;;;;;5007618;28;20472;-82
2022/10/27 00:15:03;;;;;;;9.70;6.40;;;19.70;87.30;;;;;;5014006;28;20511;-81
2022/10/27 00:17:31;;;;;;;7.90;5.40;;;19.70;87.30;;;;;;5023918;28;20450;-81
2022/10/27 00:19:59;;;;;;;9.20;5.53;;;19.70;87.50;;;;;;5013500;28;20471;-82
2022/10/27 00:22:28;;;;;;;7.97;5.70;;;19.70;87.50;;;;;;5013483;28;20472;-81
2022/10/27 00:24:56;;;;;;;8.00;5.90;;;19.70;87.80;;;;;;5018153;28;20458;-81
2022/10/27 00:27:26;;;;;;;8.20;5.57;;;19.70;87.90;;;;;;5010486;28;20452;-81
2022/10/27 00:29:54;;;;;;;9.30;5.90;;;19.60;87.90;;;;;;5013092;28;20459;-78
2022/10/27 00:32:22;;;;;;;7.63;4.90;;;19.70;88.00;;;;;;5009941;28;20468;-78
2022/10/27 00:34:50;;;;;;;7.80;5.10;;;19.60;88.10;;;;;;5011073;28;20472;-78
2022/10/27 00:37:18;;;;;;;6.47;5.40;;;19.60;88.20;;;;;;5008031;28;20545;-79
2022/10/27 00:39:46;;;;;;;7.07;4.93;;;19.60;88.20;;;;;;5011091;28;20455;-79
2022/10/27 00:42:15;;;;;;;6.63;5.33;;;19.60;88.40;;;;;;5016219;28;20482;-80
2022/10/27 00:44:45;;;;;;;7.70;5.53;;;19.60;88.50;;;;;;5017145;28;20482;-79
2022/10/27 00:47:19;;;;;;;9.53;5.47;;;19.60;88.50;;;;;;5017493;28;20445;-79
2022/10/27 00:49:49;;;;;;;8.37;5.00;;;19.60;88.50;;;;;;5016727;28;20443;-80
2022/10/27 00:52:20;;;;;;;6.80;5.17;;;19.60;88.60;;;;;;5017849;28;20427;-80
2022/10/27 00:54:48;;;;;;;11.30;5.07;;;19.60;88.80;;;;;;5022967;28;20593;-80
2022/10/27 00:57:16;;;;;;;8.40;4.80;;;19.50;88.70;;;;;;5020840;28;20467;-81
2022/10/27 00:59:46;;;;;;;7.07;4.40;;;19.50;88.90;;;;;;5021663;28;20467;-81
2022/10/27 01:02:14;;;;;;;7.13;4.93;;;19.50;89.10;;;;;;5021097;28;20472;-80
2022/10/27 01:04:45;;;;;;;6.87;4.90;;;19.50;89.10;;;;;;5020830;28;20463;-81
2022/10/27 01:07:13;;;;;;;7.47;4.93;;;19.50;89.20;;;;;;5020016;28;20452;-80
2022/10/27 01:09:42;;;;;;;9.93;5.47;;;19.50;89.20;;;;;;5019145;28;20463;-80
2022/10/27 01:12:10;;;;;;;5.40;4.60;;;19.50;89.30;;;;;;5020180;28;20453;-80
2022/10/27 01:14:38;;;;;;;6.70;4.90;;;19.50;89.40;;;;;;5023240;28;20522;-80
2022/10/27 01:17:12;;;;;;;9.10;4.73;;;19.50;89.50;;;;;;5021332;28;20459;-80
2022/10/27 01:20:05;;;;;;;6.27;4.20;;;19.40;89.40;;;;;;5007711;28;20428;-80
2022/10/27 01:22:35;;;;;;;4.70;4.20;;;19.40;89.60;;;;;;5006277;28;20444;-80
2022/10/27 01:25:12;;;;;;;5.57;4.37;;;19.40;89.80;;;;;;5022252;28;20444;-80
2022/10/27 01:28:03;;;;;;;5.73;4.40;;;19.40;90.00;;;;;;5014222;28;20429;-80
2022/10/27 01:30:31;;;;;;;6.43;4.47;;;19.40;90.00;;;;;;5010267;28;20456;-79
2022/10/27 01:33:04;;;;;;;5.70;4.40;;;19.40;90.00;;;;;;5002698;28;20476;-79
2022/10/27 01:35:34;;;;;;;7.93;5.50;;;19.40;90.10;;;;;;5007976;28;20465;-80
2022/10/27 01:38:07;;;;;;;6.97;4.53;;;19.30;90.10;;;;;;5018293;28;20440;-80
2022/10/27 01:40:37;;;;;;;5.07;4.50;;;19.30;90.00;;;;;;5013822;28;20531;-79
2022/10/27 01:43:07;;;;;;;5.53;4.30;;;19.40;90.10;;;;;;5017984;28;20475;-79
2022/10/27 01:45:37;;;;;;;5.60;4.50;;;19.30;90.10;;;;;;5018044;28;20459;-79
2022/10/27 01:48:07;;;;;;;8.50;4.00;;;19.30;90.10;;;;;;5013034;28;20435;-80
2022/10/27 01:50:36;;;;;;;5.60;4.40;;;19.30;90.20;;;;;;5017694;28;20514;-80
2022/10/27 01:53:25;;;;;;;5.57;4.33;;;19.30;90.20;;;;;;5015718;28;20460;-79
2022/10/27 01:56:00;;;;;;;6.00;4.30;;;19.30;90.20;;;;;;5015414;28;20455;-79
2022/10/27 01:58:35;;;;;;;5.87;4.33;;;19.30;90.20;;;;;;5014573;28;20444;-79
2022/10/27 02:01:21;;;;;;;6.60;4.00;;;19.30;90.30;;;;;;5015122;28;20451;-79
2022/10/27 02:04:02;;;;;;;4.87;3.67;;;19.30;90.30;;;;;;5014836;28;20469;-79
2022/10/27 02:06:31;;;;;;;6.07;4.40;;;19.20;90.30;;;;;;5010543;28;20455;-79
2022/10/27 02:09:01;;;;;;;5.47;4.37;;;19.20;90.40;;;;;;5009245;28;20463;-79
2022/10/27 02:11:29;;;;;;;5.10;4.03;;;19.30;90.50;;;;;;5016651;28;20455;-80
2022/10/27 02:13:58;;;;;;;8.83;4.37;;;19.20;90.40;;;;;;5018838;28;20490;-80
2022/10/27 02:16:28;;;;;;;4.27;3.87;;;19.20;90.50;;;;;;5008209;28;20454;-80
2022/10/27 02:19:00;;;;;;;4.50;3.90;;;19.20;90.50;;;;;;5016719;28;20452;-80
2022/10/27 02:21:28;;;;;;;4.37;3.73;;;19.20;90.50;;;;;;5016787;28;20445;-80
2022/10/27 02:23:57;;;;;;;8.20;4.50;;;19.20;90.60;;;;;;5018669;28;20459;-79
2022/10/27 02:26:26;;;;;;;6.10;3.83;;;19.20;90.60;;;;;;5014738;28;20552;-80
2022/10/27 02:28:56;;;;;;;7.17;3.90;;;19.20;90.60;;;;;;5011025;28;20439;-81
2022/10/27 02:31:25;;;;;;;6.50;4.50;;;19.20;90.70;;;;;;5018501;28;20451;-79
2022/10/27 02:33:54;;;;;;;3.90;3.60;;;19.20;90.60;;;;;;5011455;28;20476;-80
2022/10/27 02:36:23;;;;;;;3.70;3.40;;;19.20;90.70;;;;;;5014566;28;20456;-79
2022/10/27 02:38:51;;;;;;;6.50;4.43;;;19.20;90.60;;;;;;5012823;28;20463;-79
2022/10/27 02:41:19;;;;;;;5.70;4.00;;;19.10;90.60;;;;;;5014145;28;20452;-80
2022/10/27 02:43:47;;;;;;;5.30;4.07;;;19.20;90.70;;;;;;5009233;28;20473;-79
2022/10/27 02:46:15;;;;;;;5.20;3.77;;;19.20;90.60;;;;;;4994480;28;20453;-80
2022/10/27 02:48:43;;;;;;;5.60;3.90;;;19.20;90.60;;;;;;4994789;28;20457;-80
2022/10/27 02:51:11;;;;;;;6.17;4.47;;;19.20;90.70;;;;;;5001949;28;20455;-80
2022/10/27 02:53:41;;;;;;;6.17;4.20;;;19.20;90.70;;;;;;5014024;28;20598;-80
2022/10/27 02:56:09;;;;;;;7.57;4.07;;;19.20;90.70;;;;;;5008631;28;20477;-80
2022/10/27 02:58:38;;;;;;;4.90;4.43;;;19.20;90.60;;;;;;4994408;28;20449;-80
2022/10/27 03:01:06;;;;;;;4.17;3.77;;;19.20;90.70;;;;;;5006449;28;20448;-80
2022/10/27 03:03:34;;;;;;;5.00;3.30;;;19.20;90.60;;;;;;5014142;28;20504;-79
2022/10/27 03:06:02;;;;;;;3.80;3.10;;;19.30;90.70;;;;;;5010987;28;20448;-79
2022/10/27 03:08:30;;;;;;;4.57;3.67;;;19.20;90.50;;;;;;5013766;28;20452;-80
2022/10/27 03:11:00;;;;;;;4.53;3.87;;;19.30;90.70;;;;;;5013634;28;20452;-80
2022/10/27 03:13:28;;;;;;;5.40;3.73;;;19.30;90.70;;;;;;5007140;28;20472;-80
2022/10/27 03:15:56;;;;;;;8.00;3.80;;;19.30;90.60;;;;;;5011804;28;20484;-80
2022/10/27 03:18:24;;;;;;;3.87;3.50;;;19.30;90.60;;;;;;4999785;28;20475;-80
2022/10/27 03:20:52;;;;;;;3.97;3.63;;;19.30;90.60;;;;;;5005500;28;20460;-80
2022/10/27 03:23:20;;;;;;;4.40;3.60;;;19.30;90.60;;;;;;5000135;28;20502;-81
2022/10/27 03:25:48;;;;;;;7.03;3.73;;;19.30;90.60;;;;;;5013704;28;20464;-80
2022/10/27 03:28:19;;;;;;;6.10;4.00;;;19.30;90.60;;;;;;5014313;28;20469;-80
2022/10/27 03:30:48;;;;;;;3.60;3.30;;;19.30;90.60;;;;;;5013407;28;20452;-80
2022/10/27 03:33:15;;;;;;;4.60;4.07;;;19.20;90.60;;;;;;5018466;28;20526;-80
2022/10/27 03:35:44;;;;;;;4.50;3.70;;;19.20;90.60;;;;;;5018456;28;20479;-81
2022/10/27 03:38:12;;;;;;;5.10;3.73;;;19.30;90.70;;;;;;5019066;28;20455;-80
2022/10/27 03:40:40;;;;;;;5.90;3.63;;;19.20;90.70;;;;;;5017053;28;20457;-79
2022/10/27 03:43:09;;;;;;;4.20;3.50;;;19.20;90.70;;;;;;5014809;28;20474;-80
2022/10/27 03:45:38;;;;;;;5.33;3.60;;;19.20;90.70;;;;;;5013009;28;20448;-80
2022/10/27 03:48:08;;;;;;;4.17;3.63;;;19.20;90.70;;;;;;5012724;28;20452;-80
2022/10/27 03:50:36;;;;;;;4.07;3.50;;;19.20;90.80;;;;;;5012952;28;20452;-80
2022/10/27 03:53:04;;;;;;;3.43;3.10;;;19.30;90.80;;;;;;5013071;28;20468;-80
2022/10/27 03:55:33;;;;;;;4.40;3.40;;;19.20;91.10;;;;;;5012518;28;20468;-79
2022/10/27 03:58:01;;;;;;;5.00;3.60;;;19.30;90.80;;;;;;5013264;28;20440;-79
2022/10/27 04:00:30;;;;;;;3.37;3.07;;;19.20;90.80;;;;;;5012451;28;20463;-80
2022/10/27 04:02:59;;;;;;;4.00;3.40;;;19.20;90.90;;;;;;5004854;28;20469;-79
2022/10/27 04:05:27;;;;;;;6.03;3.60;;;19.20;90.90;;;;;;4998062;28;20456;-79
2022/10/27 04:07:55;;;;;;;4.30;3.90;;;19.30;90.90;;;;;;5012547;28;20431;-80
2022/10/27 04:10:23;;;;;;;3.83;3.30;;;19.20;90.90;;;;;;5012380;28;20431;-81
2022/10/27 04:12:52;;;;;;;3.53;3.30;;;19.20;90.90;;;;;;5012428;28;20476;-80
2022/10/27 04:15:21;;;;;;;4.20;3.70;;;19.30;90.90;;;;;;5008377;28;20475;-80
2022/10/27 04:17:49;;;;;;;3.17;2.97;;;19.20;90.90;;;;;;5016238;28;20460;-80
2022/10/27 04:20:19;;;;;;;4.90;3.67;;;19.20;90.90;;;;;;5014361;28;20459;-81
2022/10/27 04:22:47;;;;;;;3.30;3.00;;;19.20;90.90;;;;;;5008943;28;20483;-79
2022/10/27 04:25:15;;;;;;;3.70;3.27;;;19.30;91.00;;;;;;5012591;28;20947;-80
2022/10/27 04:27:44;;;;;;;4.80;3.40;;;19.30;90.90;;;;;;5012323;28;20452;-79
2022/10/27 04:30:13;;;;;;;2.93;2.73;;;19.20;91.00;;;;;;5011320;28;20531;-80
2022/10/27 04:32:41;;;;;;;3.17;2.87;;;19.20;91.00;;;;;;5012353;28;20483;-80
2022/10/27 04:35:09;;;;;;;7.23;3.60;;;19.30;91.10;;;;;;5015748;28;20478;-80
2022/10/27 04:37:39;;;;;;;3.40;3.10;;;19.20;91.00;;;;;;5003180;28;20460;-80
2022/10/27 04:40:09;;;;;;;4.80;3.40;;;19.20;91.10;;;;;;5014241;28;20462;-80
2022/10/27 04:42:37;;;;;;;3.60;3.30;;;19.20;91.10;;;;;;5016189;28;20490;-79
2022/10/27 04:45:05;;;;;;;3.87;3.57;;;19.20;91.10;;;;;;5030279;28;20511;-81
2022/10/27 04:47:34;;;;;;;4.37;3.60;;;19.20;91.10;;;;;;5034730;28;20456;-82
2022/10/27 04:50:01;;;;;;;3.77;3.37;;;19.20;91.20;;;;;;5022807;28;20490;-83
2022/10/27 04:52:30;;;;;;;5.83;3.37;;;19.10;91.10;;;;;;5034975;28;20560;-81
2022/10/27 04:54:59;;;;;;;3.90;3.37;;;19.10;91.20;;;;;;5035399;28;20512;-81
2022/10/27 04:57:27;;;;;;;3.83;3.50;;;19.10;91.30;;;;;;5033525;28;20456;-82
2022/10/27 04:59:55;;;;;;;3.27;3.07;;;19.20;91.40;;;;;;5023519;28;20418;-80
2022/10/27 05:02:23;;;;;;;3.83;3.43;;;19.10;91.30;;;;;;5038992;28;20495;-82
2022/10/27 05:04:51;;;;;;;4.50;3.07;;;19.10;91.40;;;;;;5024198;28;20434;-84
2022/10/27 05:07:19;;;;;;;6.03;3.30;;;19.10;91.50;;;;;;5039148;28;20445;-81
2022/10/27 05:09:47;;;;;;;5.70;3.97;;;19.10;91.50;;;;;;5032309;28;20472;-82
2022/10/27 05:12:16;;;;;;;4.47;3.67;;;19.10;91.40;;;;;;5030391;28;20484;-80
2022/10/27 05:14:45;;;;;;;3.13;2.83;;;19.10;91.60;;;;;;5012925;28;20552;-79
2022/10/27 05:17:13;;;;;;;7.13;3.30;;;19.10;91.60;;;;;;5016223;28;20476;-80
2022/10/27 05:19:46;;;;;;;3.70;2.90;;;19.00;91.60;;;;;;5021470;28;20467;-79
2022/10/27 05:22:14;;;;;;;3.80;3.43;;;19.00;91.60;;;;;;5015623;28;20552;-79
2022/10/27 05:24:42;;;;;;;4.57;3.50;;;19.00;91.60;;;;;;5003115;28;20454;-79
2022/10/27 05:27:10;;;;;;;3.37;3.07;;;19.00;91.70;;;;;;5012670;28;20465;-80
2022/10/27 05:29:39;;;;;;;4.33;3.33;;;19.00;91.70;;;;;;5019881;28;20461;-79
2022/10/27 05:32:08;;;;;;;3.33;3.10;;;19.00;91.70;;;;;;5021326;28;20415;-80
2022/10/27 05:34:36;;;;;;;2.70;2.50;;;19.00;91.80;;;;;;5020401;28;20448;-80
2022/10/27 05:37:04;;;;;;;3.70;3.30;;;19.00;91.80;;;;;;5021168;28;20482;-80
2022/10/27 05:39:32;;;;;;;6.70;2.80;;;19.00;91.80;;;;;;5021286;28;20459;-80
2022/10/27 05:42:01;;;;;;;5.37;3.63;;;19.00;91.80;;;;;;5018890;28;20456;-80
2022/10/27 05:44:29;;;;;;;3.50;3.20;;;19.00;91.90;;;;;;5019155;28;20448;-80
2022/10/27 05:46:59;;;;;;;3.57;3.27;;;19.00;91.90;;;;;;5012312;28;20456;-80
2022/10/27 05:49:27;;;;;;;3.60;3.30;;;19.00;92.00;;;;;;5019708;28;20543;-80
2022/10/27 05:51:55;;;;;;;3.50;3.20;;;18.90;91.90;;;;;;5020078;28;20452;-80
2022/10/27 05:54:23;;;;;;;2.80;2.60;;;18.90;91.90;;;;;;5019993;28;20512;-80
2022/10/27 05:56:51;;;;;;;7.30;3.60;;;18.90;92.00;;;;;;5012216;28;20464;-80
2022/10/27 05:59:20;;;;;;;3.40;3.10;;;18.90;92.30;;;;;;5019297;28;20460;-80
2022/10/27 06:01:47;;;;;;;3.63;3.30;;;18.90;92.00;;;;;;5019351;28;20452;-80
2022/10/27 06:04:17;;;;;;;3.40;3.10;;;18.90;92.10;;;;;;5020326;28;20448;-80
2022/10/27 06:06:45;;;;;;;2.60;2.43;;;18.90;92.10;;;;;;5019784;28;20456;-80
2022/10/27 06:09:14;;;;;;;3.40;2.83;;;18.90;92.10;;;;;;5020349;28;20444;-81
2022/10/27 06:11:41;;;;;;;4.23;2.80;;;18.90;92.10;;;;;;5018015;28;20465;-81
2022/10/27 06:14:10;;;;;;;3.47;3.17;;;18.90;92.20;;;;;;5018297;28;20468;-81
2022/10/27 06:16:38;;;;;;;3.53;3.00;;;18.90;92.20;;;;;;5018778;28;20468;-80
2022/10/27 06:19:06;;;;;;;3.50;3.20;;;18.90;92.20;;;;;;5021322;28;20444;-81
2022/10/27 06:21:35;;;;;;;3.27;3.07;;;18.90;92.20;;;;;;5019172;28;20463;-79
2022/10/27 06:24:04;;;;;;;2.90;2.70;;;18.90;92.30;;;;;;5016278;28;20468;-80
2022/10/27 06:26:32;;;;;;;3.33;3.03;;;18.90;92.20;;;;;;5018334;28;20466;-80
2022/10/27 06:29:00;;;;;;;2.93;2.73;;;18.90;92.30;;;;;;5016112;28;20456;-80
2022/10/27 06:31:28;;;;;;;3.30;3.00;;;18.90;92.20;;;;;;5012319;28;20459;-80
2022/10/27 06:33:57;;;;;;;3.00;2.80;;;18.90;92.20;;;;;;5017565;28;20482;-80
2022/10/27 06:36:25;;;;;;;2.93;2.73;;;18.90;92.30;;;;;;5010114;28;20508;-80
2022/10/27 06:38:54;;;;;;;4.23;3.50;;;18.90;92.30;;;;;;5018745;28;20450;-80
2022/10/27 06:41:22;;;;;;;6.10;3.60;;;18.90;92.30;;;;;;5020097;28;20460;-80
2022/10/27 06:43:50;;;;;;;4.00;3.07;;;18.90;92.30;;;;;;5018064;28;20476;-80
2022/10/27 06:46:18;;;;;;;3.07;2.87;;;18.90;92.30;;;;;;5010290;28;20432;-80
2022/10/27 06:48:47;;;;;;;3.40;3.10;;;18.90;92.30;;;;;;5019028;28;20448;-80
2022/10/27 06:51:15;;;;;;;3.20;3.00;;;18.90;92.30;;;;;;5019410;28;20901;-81
2022/10/27 06:53:43;;;;;;;3.47;3.20;;;19.00;92.30;;;;;;5011626;28;20484;-80
2022/10/27 06:56:12;;;;;;;3.33;3.03;;;19.00;92.30;;;;;;5014931;28;20460;-81
2022/10/27 06:58:41;;;;;;;3.20;2.90;;;19.00;92.20;;;;;;5019163;28;20543;-80
2022/10/27 07:01:09;;;;;;;3.07;2.87;;;19.00;92.20;;;;;;5015767;28;20486;-81
2022/10/27 07:03:37;;;;;;;2.80;2.60;;;19.00;92.10;;;;;;5013786;28;20483;-80
2022/10/27 07:06:05;;;;;;;3.10;2.90;;;19.00;92.10;;;;;;5015455;28;20436;-79
2022/10/27 07:08:33;;;;;;;3.00;2.73;;;19.00;92.10;;;;;;5018533;28;20435;-80
2022/10/27 07:11:01;;;;;;;3.00;2.80;;;19.10;92.10;;;;;;5018577;28;20423;-79
2022/10/27 07:13:30;;;;;;;3.50;3.20;;;19.10;92.10;;;;;;5018784;28;20465;-80
2022/10/27 07:15:58;;;;;;;3.13;2.93;;;19.10;92.10;;;;;;5019083;28;20436;-80
2022/10/27 07:18:26;;;;;;;3.30;3.10;;;19.10;92.10;;;;;;5018277;28;20474;-80
2022/10/27 07:20:54;;;;;;;2.87;2.67;;;19.10;92.00;;;;;;5016037;28;20452;-80
2022/10/27 07:23:21;;;;;;;3.50;3.20;;;19.10;92.00;;;;;;5001987;28;20468;-80
2022/10/27 07:25:49;;;;;;;3.20;2.90;;;19.10;92.00;;;;;;5016415;28;20447;-80
2022/10/27 07:28:17;;;;;;;5.13;3.10;;;19.10;91.90;;;;;;5017596;28;20539;-80
2022/10/27 07:30:47;;;;;;;3.93;3.43;;;19.10;92.00;;;;;;5018254;28;20479;-80
2022/10/27 07:33:15;;;;;;;3.13;2.87;;;19.10;92.00;;;;;;5021368;28;20531;-81
2022/10/27 07:35:43;;;;;;;3.70;3.40;;;19.10;92.10;;;;;;5019668;28;20438;-80
2022/10/27 07:38:11;;;;;;;5.17;3.77;;;19.10;91.90;;;;;;5015484;28;20497;-81
2022/10/27 07:40:39;;;;;;;4.03;3.60;;;19.20;91.90;;;;;;5012520;28;20440;-80
2022/10/27 07:43:07;;;;;;;3.80;3.47;;;19.20;91.80;;;;;;5019122;28;20468;-81
2022/10/27 07:45:35;;;;;;;3.20;2.90;;;19.30;91.70;;;;;;5005632;28;20453;-80
2022/10/27 07:48:05;;;;;;;3.83;3.50;;;19.30;91.70;;;;;;5018829;28;20460;-81
2022/10/27 07:50:33;;;;;;;3.30;3.00;;;19.40;91.60;;;;;;5015119;28;20945;-80
2022/10/27 07:53:01;;;;;;;4.10;3.13;;;19.40;91.40;;;;;;5008901;28;20465;-81
2022/10/27 07:55:30;;;;;;;3.50;3.20;;;19.40;91.40;;;;;;5006740;28;20464;-81
2022/10/27 07:57:59;;;;;;;4.03;3.00;;;19.50;91.30;;;;;;5015602;28;20468;-79
2022/10/27 08:00:28;;;;;;;5.63;3.50;;;19.50;91.20;;;;;;5018175;28;20471;-80
2022/10/27 08:02:58;;;;;;;3.20;3.00;;;19.50;91.10;;;;;;5016464;28;20464;-79
2022/10/27 08:05:28;;;;;;;3.30;3.00;;;19.60;91.00;;;;;;5017038;28;20436;-79
2022/10/27 08:07:59;;;;;;;3.53;3.03;;;19.60;90.90;;;;;;5018591;28;20471;-79
2022/10/27 08:10:28;;;;;;;4.63;3.30;;;19.70;90.90;;;;;;5022323;28;20455;-79
2022/10/27 08:12:58;;;;;;;3.80;3.37;;;19.70;90.70;;;;;;5015303;28;20457;-80
2022/10/27 08:15:26;;;;;;;3.30;3.10;;;19.80;90.70;;;;;;5015776;28;20431;-79
2022/10/27 08:17:56;;;;;;;3.03;2.87;;;19.90;90.70;;;;;;5030340;28;20471;-82
2022/10/27 08:20:24;;;;;;;7.10;3.60;;;19.90;90.60;;;;;;5033660;28;20452;-81
2022/10/27 08:22:57;;;;;;;3.63;3.00;;;20.00;90.50;;;;;;5021065;28;20472;-80
2022/10/27 08:25:25;;;;;;;3.50;2.83;;;20.10;90.40;;;;;;5018963;28;20458;-80
2022/10/27 08:27:53;;;;;;;5.27;3.40;;;20.30;90.40;;;;;;5015705;28;20427;-81
2022/10/27 08:30:22;;;;;;;3.90;3.07;;;20.40;90.20;;;;;;5018517;28;20457;-82
2022/10/27 08:32:51;;;;;;;6.87;3.17;;;20.70;92.50;;;;;;5020635;28;21054;-79
2022/10/27 08:35:19;;;;;;;4.70;2.73;;;21.30;95.10;;;;;;5022104;28;20452;-78
2022/10/27 08:37:48;;;;;;;10.77;2.60;;;21.80;95.30;;;;;;5022345;28;20454;-80
2022/10/27 08:40:18;;;;;;;13.90;2.63;;;22.10;94.80;;;;;;5021544;28;20419;-78
2022/10/27 08:42:50;;;;;;;6.97;2.77;;;22.40;94.70;;;;;;5020606;28;20460;-78
2022/10/27 08:45:20;;;;;;;8.43;2.83;;;22.70;94.50;;;;;;5020031;28;20411;-80
2022/10/27 08:47:48;;;;;;;5.53;2.70;;;22.80;94.20;;;;;;5023474;28;20446;-82
2022/10/27 08:50:18;;;;;;;8.97;2.60;;;22.90;94.00;;;;;;5024818;28;20450;-80
2022/10/27 08:52:51;;;;;;;4.40;2.80;;;23.00;93.90;;;;;;5023588;28;20612;-79
2022/10/27 08:55:23;;;;;;;5.33;2.43;;;23.20;93.70;;;;;;5026077;28;20539;-81
2022/10/27 08:57:55;;;;;;;4.93;2.70;;;23.20;93.50;;;;;;5030430;28;20448;-80
2022/10/27 09:00:23;;;;;;;7.70;3.33;;;23.30;93.30;;;;;;5025506;28;20431;-80
2022/10/27 09:03:00;;;;;;;2.70;2.50;;;23.30;93.80;;;;;;5025290;28;20477;-82
2022/10/27 09:05:36;;;;;;;6.40;2.50;;;23.20;94.10;;;;;;5025756;28;20452;-82
2022/10/27 09:08:07;;;;;;;3.97;2.43;;;23.20;94.30;;;;;;5017464;28;20419;-81
2022/10/27 09:10:42;;;;;;;5.07;2.30;;;23.20;94.50;;;;;;5030547;28;20415;-81
2022/10/27 09:13:23;;;;;;;11.70;2.60;;;23.30;94.40;;;;;;5017321;28;20478;-79
2022/10/27 09:15:52;;;;;;;5.33;2.67;;;23.40;94.50;;;;;;5017647;28;20487;-80
2022/10/27 09:18:24;;;;;;;9.50;2.60;;;23.60;93.50;;;;;;5010563;28;20492;-79
2022/10/27 09:20:53;;;;;;;9.57;3.20;;;23.60;93.30;;;;;;5012291;28;20477;-78
2022/10/27 09:23:24;;;;;;;8.10;2.43;;;23.90;93.30;;;;;;5024759;28;20439;-83
2022/10/27 09:25:54;;;;;;;3.83;2.10;;;24.10;93.40;;;;;;5021468;28;20467;-77
2022/10/27 09:28:26;;;;;;;6.20;2.67;;;24.10;93.20;;;;;;5016160;28;20433;-81
2022/10/27 09:30:54;;;;;;;7.37;2.57;;;24.10;93.10;;;;;;5022341;28;20442;-79
2022/10/27 09:33:27;;;;;;;11.53;2.63;;;24.10;93.00;;;;;;5023988;28;20473;-80
2022/10/27 09:35:55;;;;;;;9.60;2.63;;;24.10;93.20;;;;;;5017360;28;20455;-78
2022/10/27 09:38:24;;;;;;;12.27;2.83;;;24.20;93.00;;;;;;5020319;28;20472;-78
2022/10/27 09:40:53;;;;;;;12.77;2.93;;;24.10;92.70;;;;;;5004710;28;20432;-79
2022/10/27 09:43:21;;;;;;;10.37;2.77;;;24.10;92.60;;;;;;5015414;28;20478;-78
2022/10/27 09:45:51;;;;;;;3.90;2.70;;;24.00;92.80;;;;;;5018300;28;20427;-78
2022/10/27 09:48:19;;;;;;;7.77;2.33;;;24.20;92.30;;;;;;5007358;28;20461;-79
2022/10/27 09:50:49;;;;;;;10.87;2.93;;;24.30;92.10;;;;;;5014724;28;20448;-79
2022/10/27 09:53:37;;;;;;;12.87;2.53;;;24.30;91.60;;;;;;5019635;28;21026;-79
2022/10/27 09:56:08;;;;;;;6.80;2.50;;;24.30;91.50;;;;;;5018552;28;20931;-79
2022/10/27 09:58:59;;;;;;;10.87;2.63;;;24.40;91.60;;;;;;5013282;28;20478;-80
2022/10/27 10:01:46;;;;;;;8.40;2.97;;;24.50;91.50;;;;;;5013810;28;20527;-81
2022/10/27 10:04:19;;;;;;;6.60;2.50;;;24.60;91.80;;;;;;5022265;28;20536;-82
2022/10/27 10:06:52;;;;;;;5.63;2.50;;;24.60;91.90;;;;;;5021900;28;20934;-82
2022/10/27 10:09:26;;;;;;;4.40;2.40;;;24.70;92.10;;;;;;5012651;28;20480;-82
2022/10/27 10:25:31;;;;;;;4.70;2.50;;;24.80;92.50;;;;;;5135723;27;20512;-79
2022/10/27 10:28:02;;;;;;;2.60;2.40;;;25.40;91.90;;;;;;5118450;28;20411;-78
2022/10/27 10:30:31;;;;;;;8.17;2.70;;;25.50;92.30;;;;;;5119503;28;20422;-81
2022/10/27 10:33:00;;;;;;;4.40;2.60;;;25.60;92.10;;;;;;5118354;28;20454;-81
2022/10/27 10:35:42;;;;;;;3.27;2.30;;;25.70;92.20;;;;;;5117619;28;20448;-82
2022/10/27 10:38:30;;;;;;;6.37;2.80;;;25.70;92.00;;;;;;5115240;28;20483;-80
2022/10/27 10:41:05;;;;;;;23.33;3.40;;;25.80;92.00;;;;;;5111309;28;20421;-80
2022/10/27 10:43:33;;;;;;;4.37;2.80;;;25.60;87.60;;;;;;5107640;28;20425;-78
2022/10/27 10:46:01;;;;;;;4.90;2.60;;;25.30;87.30;;;;;;5112084;28;20968;-78
2022/10/27 10:48:40;;;;;;;8.93;2.80;;;25.20;87.20;;;;;;5120961;28;20443;-84
2022/10/27 10:51:09;;;;;;;7.23;2.83;;;25.20;83.30;;;;;;5119373;28;20518;-84
2022/10/27 10:53:39;;;;;;;9.33;3.03;;;25.00;82.20;;;;;;5118682;28;20479;-80
2022/10/27 10:56:24;;;;;;;4.80;2.83;;;25.10;80.90;;;;;;5116507;28;20455;-83
2022/10/27 10:58:56;;;;;;;6.00;3.10;;;25.10;82.10;;;;;;5109830;28;20422;-80
2022/10/27 11:01:23;;;;;;;4.20;2.40;;;25.10;79.30;;;;;;5104734;28;20455;-81
2022/10/27 11:03:53;;;;;;;4.17;2.50;;;25.10;79.80;;;;;;5114622;28;20551;-82
2022/10/27 11:06:21;;;;;;;9.33;3.30;;;25.00;78.60;;;;;;5115657;28;20437;-81
2022/10/27 11:08:55;;;;;;;2.43;2.23;;;25.00;79.60;;;;;;5117034;28;20442;-82
2022/10/27 11:11:26;;;;;;;3.53;2.33;;;25.00;79.50;;;;;;5115265;28;20433;-81
2022/10/27 11:13:55;;;;;;;7.10;3.30;;;25.00;79.30;;;;;;5112413;28;20832;-82
2022/10/27 11:16:23;;;;;;;5.70;2.53;;;25.00;78.30;;;;;;5112785;28;20438;-83
2022/10/27 11:18:52;;;;;;;11.20;3.10;;;24.80;78.20;;;;;;5115054;28;20425;-79
2022/10/27 11:21:25;;;;;;;8.57;2.63;;;24.90;78.50;;;;;;5113170;28;20435;-82
2022/10/27 11:23:54;;;;;;;2.50;2.13;;;25.00;77.90;;;;;;5115008;28;20482;-81
2022/10/27 11:26:25;;;;;;;5.30;2.23;;;25.00;76.70;;;;;;5101826;28;20506;-84
2022/10/27 11:28:56;;;;;;;9.30;2.63;;;25.00;75.60;;;;;;5099778;28;20452;-84
2022/10/27 11:31:28;;;;;;;1.80;1.70;;;24.90;75.10;;;;;;5110138;28;20455;-83
2022/10/27 11:33:59;;;;;;;3.13;2.13;;;24.80;74.20;;;;;;5103975;28;20439;-85
2022/10/27 11:36:29;;;;;;;3.37;2.00;;;24.60;74.80;;;;;;5102140;28;20417;-85
2022/10/27 11:39:02;;;;;;;4.70;1.87;;;24.60;74.30;;;;;;5100511;28;20430;-84
2022/10/27 11:41:36;;;;;;;3.10;2.03;;;24.70;74.20;;;;;;5103025;28;20419;-81
2022/10/27 11:44:09;;;;;;;2.40;2.20;;;25.00;74.60;;;;;;5100997;28;20435;-83
2022/10/27 11:46:40;;;;;;;3.97;2.47;;;25.00;73.70;;;;;;5095452;28;20459;-83
2022/10/27 11:49:10;;;;;;;6.03;2.10;;;25.00;73.40;;;;;;5097784;28;20411;-83
2022/10/27 11:51:43;;;;;;;3.83;2.17;;;25.10;72.30;;;;;;5098466;28;20441;-81
2022/10/27 11:54:11;;;;;;;10.97;2.23;;;25.20;72.70;;;;;;5099412;28;20453;-81
2022/10/27 11:56:50;;;;;;;5.07;2.37;;;25.00;72.60;;;;;;5105058;28;20451;-82
2022/10/27 11:59:21;;;;;;;3.37;2.50;;;24.90;72.40;;;;;;5097342;28;20430;-84
2022/10/27 12:02:04;;;;;;;3.70;2.00;;;24.60;72.00;;;;;;5101039;28;20434;-81
2022/10/27 12:04:40;;;;;;;4.77;1.80;;;24.40;71.70;;;;;;5097000;28;20491;-82
2022/10/27 12:07:16;;;;;;;4.07;2.00;;;24.20;71.40;;;;;;5101030;28;20460;-82
2022/10/27 12:09:54;;;;;;;3.67;2.10;;;23.90;72.00;;;;;;5096817;28;20502;-81
2022/10/27 12:12:25;;;;;;;6.60;2.50;;;23.90;72.10;;;;;;5098713;28;20468;-83
2022/10/27 12:14:56;;;;;;;2.13;1.90;;;23.90;71.70;;;;;;5101741;28;20439;-82
2022/10/27 12:17:26;;;;;;;4.93;2.63;;;24.10;71.00;;;;;;5094956;28;20427;-83
2022/10/27 12:19:55;;;;;;;3.73;1.93;;;24.20;70.80;;;;;;5098388;28;20471;-80
2022/10/27 12:22:25;;;;;;;7.17;2.87;;;23.90;71.50;;;;;;5100481;28;20465;-81
2022/10/27 12:24:56;;;;;;;4.33;2.67;;;24.00;71.40;;;;;;5099009;28;20445;-81
2022/10/27 12:27:28;;;;;;;2.83;2.27;;;24.10;72.20;;;;;;5094091;28;20430;-84
2022/10/27 12:29:57;;;;;;;6.30;2.60;;;24.20;72.00;;;;;;5095299;28;20419;-80
2022/10/27 12:32:26;;;;;;;11.80;2.37;;;24.10;73.90;;;;;;5099546;28;20461;-84
2022/10/27 12:34:57;;;;;;;3.27;2.50;;;24.00;73.60;;;;;;5103572;28;20450;-84
2022/10/27 12:37:26;;;;;;;7.80;3.03;;;23.90;74.30;;;;;;5095473;28;20427;-81
2022/10/27 12:39:57;;;;;;;6.57;2.80;;;23.90;74.60;;;;;;5101259;28;20460;-81
2022/10/27 12:42:31;;;;;;;2.63;2.40;;;23.70;75.20;;;;;;5076783;28;20448;-82
2022/10/27 12:45:03;;;;;;;6.00;2.77;;;23.70;75.80;;;;;;5076004;28;20445;-81
2022/10/27 12:47:38;;;;;;;4.10;2.73;;;23.60;75.70;;;;;;5094104;28;20440;-81
2022/10/27 12:50:15;;;;;;;2.53;2.30;;;23.40;77.00;;;;;;5103154;28;20454;-82
2022/10/27 12:52:48;;;;;;;4.50;2.70;;;23.40;76.70;;;;;;5106757;28;20494;-83
2022/10/27 12:55:24;;;;;;;10.53;2.67;;;23.50;76.70;;;;;;5104947;28;20469;-82
2022/10/27 12:57:56;;;;;;;6.93;2.37;;;23.70;76.80;;;;;;5104006;28;20526;-81
2022/10/27 13:00:24;;;;;;;4.20;1.90;;;24.00;75.40;;;;;;5098683;28;21179;-80
2022/10/27 13:03:13;;;;;;;5.20;2.40;;;24.10;74.50;;;;;;5099143;28;20531;-81
2022/10/27 13:06:09;;;;;;;2.70;2.50;;;24.20;74.50;;;;;;5084090;28;20451;-81
2022/10/27 13:09:01;;;;;;;3.33;2.20;;;24.30;74.60;;;;;;5101224;28;20467;-82
2022/10/27 13:11:59;;;;;;;4.07;2.50;;;24.30;74.20;;;;;;5097724;28;20431;-80
2022/10/27 13:15:01;;;;;;;4.90;2.17;;;24.30;74.10;;;;;;5060494;28;20471;-80